Clipper Mars — LAHZ6 — position and weather

sailwx.info

Track history (hours):
 
Tides and Currents Weather Stations Pressure Air Temp Water Temp Dewpoint Dewpoint Depression Visibility Wind Speed Wind Dir Waves Ship Positions

Clipper Mars

Last reported at 2017-Aug-23 14:28 UTC. Time now 2017-Sep-20 22:12 UTC.
Position N 31°23' E 032°19'.
Warning: this ship's position is 28 days out of date.

Length 205 m; draft 12.3 m.

Type: Tanker. MMSI: 258667000.

Date/timePositionNaut miles runAvg speedWind from/ knotsBaromVisibWave heightAir tempDewpointWater temp
2017-Aug-23 14:28N 31°23' E 032°19'25312.5
2017-Aug-22 18:15N 34°28' E 028°53'22615.0
2017-Aug-22 03:08N 37°22' E 025°55'214.5
2017-Aug-22 03:00N 37°23' E 025°54'714.3
2017-Aug-22 02:30N 37°30' E 025°50'714.5
2017-Aug-22 02:01N 37°37' E 025°47'714.1
2017-Aug-22 01:30N 37°43' E 025°43'714.4
2017-Aug-22 01:00N 37°50' E 025°40'11314.1
2017-Aug-21 16:58N 39°43' E 025°41'714.9
2017-Aug-21 16:30N 39°50' E 025°44'  
2017-Aug-19 04:37N 41°29' E 029°09'1 1.4
2017-Aug-19 04:07N 41°29' E 029°09'0 1.3
2017-Aug-19 04:00N 41°29' E 029°09'1 1.3
2017-Aug-19 03:30N 41°30' E 029°08'1 1.2
2017-Aug-19 02:54N 41°30' E 029°07'3 0.6
2017-Aug-18 22:19N 41°32' E 029°04'0 0.8
2017-Aug-18 22:00N 41°32' E 029°04'0 0.8
2017-Aug-18 21:30N 41°33' E 029°04'0 0.7
2017-Aug-18 21:00N 41°33' E 029°04'0 0.7
2017-Aug-18 20:26N 41°33' E 029°03'0 0.6
2017-Aug-18 20:00N 41°34' E 029°03'0 0.7
2017-Aug-18 19:30N 41°34' E 029°03'0 0.7
2017-Aug-18 19:00N 41°34' E 029°03'1 0.7
2017-Aug-18 17:25N 41°35' E 029°03'11 6.7
2017-Aug-18 15:45N 41°26' E 029°12'4 3.0
2017-Aug-18 14:29N 41°24' E 029°15'4 1.1
2017-Aug-18 10:53N 41°27' E 029°12'0 1.0
2017-Aug-18 10:29N 41°27' E 029°11'0 0.9
2017-Aug-18 10:00N 41°27' E 029°11'0 0.9
2017-Aug-18 09:30N 41°28' E 029°11'0 0.9
2017-Aug-18 09:00N 41°28' E 029°10'0 0.9
2017-Aug-18 08:30N 41°29' E 029°10'0 0.9
2017-Aug-18 08:00N 41°29' E 029°10'3 1.0
2017-Aug-18 04:57N 41°31' E 029°08'1 1.0
2017-Aug-18 04:26N 41°32' E 029°07'1 1.0
2017-Aug-18 03:48N 41°32' E 029°07'0 1.0
2017-Aug-18 03:30N 41°33' E 029°06'0 1.0
2017-Aug-18 03:00N 41°33' E 029°06'0 1.0
2017-Aug-18 02:30N 41°33' E 029°06'2 1.0
2017-Aug-18 00:16N 41°35' E 029°04'0 1.1
2017-Aug-17 23:57N 41°35' E 029°03'0 0.6
2017-Aug-17 23:29N 41°36' E 029°03'1 2.0
2017-Aug-17 22:59N 41°36' E 029°05'511.3
2017-Aug-17 22:30N 41°37' E 029°11'714.1
2017-Aug-17 22:00N 41°43' E 029°17'815.7
2017-Aug-17 21:30N 41°50' E 029°20'815.8
2017-Aug-17 21:00N 41°58' E 029°23'815.7
2017-Aug-17 20:30N 42°05' E 029°26'1215.6
2017-Aug-17 19:45N 42°16' E 029°32'415.5
2017-Aug-17 19:30N 42°20' E 029°34'815.3
2017-Aug-17 19:00N 42°27' E 029°38'815.3
2017-Aug-17 18:30N 42°34' E 029°43'815.2
2017-Aug-17 18:01N 42°41' E 029°47'815.2
2017-Aug-17 17:30N 42°48' E 029°51'815.2
2017-Aug-17 17:01N 42°55' E 029°55'815.3
2017-Aug-17 16:30N 43°02' E 029°59'815.3
2017-Aug-17 16:00N 43°09' E 030°02'815.4
2017-Aug-17 15:30N 43°16' E 030°06'815.3
2017-Aug-17 15:00N 43°23' E 030°10'815.3
2017-Aug-17 14:30N 43°31' E 030°14'815.4
2017-Aug-17 14:00N 43°38' E 030°17'815.4
2017-Aug-17 13:30N 43°45' E 030°21'815.3
2017-Aug-17 13:00N 43°52' E 030°25'815.1
2017-Aug-17 12:30N 43°59' E 030°29'715.0
2017-Aug-17 12:01N 44°06' E 030°32'814.8
2017-Aug-17 11:30N 44°13' E 030°36'714.8
2017-Aug-17 11:00N 44°20' E 030°39'714.7
2017-Aug-17 10:31N 44°27' E 030°43'714.6
2017-Aug-17 10:00N 44°34' E 030°47'714.6
2017-Aug-17 09:31N 44°41' E 030°50'714.7
2017-Aug-17 09:00N 44°48' E 030°53'914.8
2017-Aug-17 08:24N 44°56' E 030°57'614.9
2017-Aug-17 08:00N 45°02' E 030°59'715.0
2017-Aug-17 07:30N 45°09' E 031°01'814.7
2017-Aug-17 06:59N 45°17' E 031°04'714.6
2017-Aug-17 06:30N 45°24' E 031°05'714.8
2017-Aug-17 06:00N 45°31' E 031°05'714.8
2017-Aug-17 05:30N 45°38' E 031°05'714.9
2017-Aug-17 05:00N 45°46' E 031°05'714.7
2017-Aug-17 04:31N 45°53' E 031°05'714.8
2017-Aug-17 04:00N 46°01' E 031°05'714.1
2017-Aug-17 03:30N 46°08' E 031°04'714.4
2017-Aug-17 03:00N 46°13' E 030°57'612.7
2017-Aug-17 02:31N 46°19' E 030°55'714.1
2017-Aug-17 02:00N 46°26' E 030°55'611.6
2017-Aug-17 01:30N 46°32' E 030°56'4 7.9
2017-Aug-17 01:00N 46°34' E 031°00'3 3.0
2017-Aug-17 00:06N 46°37' E 031°01'0 0.0
2017-Aug-16 23:58N 46°37' E 031°01'0 0.0
2017-Aug-16 23:28N 46°37' E 031°01'3 0.1
2017-Aug-15 14:00N 46°34' E 031°00'10 6.6
2017-Aug-15 12:29N 46°24' E 030°57'714.9
2017-Aug-15 12:00N 46°17' E 030°58'815.4
2017-Aug-15 11:30N 46°11' E 031°05'714.9
2017-Aug-15 11:00N 46°04' E 031°09'815.3
2017-Aug-15 10:30N 45°57' E 031°09'814.9
2017-Aug-15 10:00N 45°49' E 031°09'4414.8
2017-Aug-15 07:03N 45°06' E 031°03'115.5
2017-Aug-15 06:58N 45°04' E 031°02'915.5
2017-Aug-15 06:23N 44°56' E 030°58'  
Track history (hours):
 
Tides and Currents Weather Stations Pressure Air Temp Water Temp Dewpoint Dewpoint Depression Visibility Wind Speed Wind Dir Waves Ship Positions

Clipper Mars

Last reported at 2017-Aug-23 14:28 UTC. Time now 2017-Sep-20 22:12 UTC.
Position N 31°23' E 032°19'.
Warning: this ship's position is 28 days out of date.

Length 205 m; draft 12.3 m.

Type: Tanker. MMSI: 258667000.

Date/timePositionNaut miles runAvg speedWind from/ knotsBaromVisibWave heightAir tempDewpointWater temp
2017-Aug-23 14:28N 31°23' E 032°19'25312.5
2017-Aug-22 18:15N 34°28' E 028°53'22615.0
2017-Aug-22 03:08N 37°22' E 025°55'214.5
2017-Aug-22 03:00N 37°23' E 025°54'714.3
2017-Aug-22 02:30N 37°30' E 025°50'714.5
2017-Aug-22 02:01N 37°37' E 025°47'714.1
2017-Aug-22 01:30N 37°43' E 025°43'714.4
2017-Aug-22 01:00N 37°50' E 025°40'11314.1
2017-Aug-21 16:58N 39°43' E 025°41'714.9
2017-Aug-21 16:30N 39°50' E 025°44'  
2017-Aug-19 04:37N 41°29' E 029°09'1 1.4
2017-Aug-19 04:07N 41°29' E 029°09'0 1.3
2017-Aug-19 04:00N 41°29' E 029°09'1 1.3
2017-Aug-19 03:30N 41°30' E 029°08'1 1.2
2017-Aug-19 02:54N 41°30' E 029°07'3 0.6
2017-Aug-18 22:19N 41°32' E 029°04'0 0.8
2017-Aug-18 22:00N 41°32' E 029°04'0 0.8
2017-Aug-18 21:30N 41°33' E 029°04'0 0.7
2017-Aug-18 21:00N 41°33' E 029°04'0 0.7
2017-Aug-18 20:26N 41°33' E 029°03'0 0.6
2017-Aug-18 20:00N 41°34' E 029°03'0 0.7
2017-Aug-18 19:30N 41°34' E 029°03'0 0.7
2017-Aug-18 19:00N 41°34' E 029°03'1 0.7
2017-Aug-18 17:25N 41°35' E 029°03'11 6.7
2017-Aug-18 15:45N 41°26' E 029°12'4 3.0
2017-Aug-18 14:29N 41°24' E 029°15'4 1.1
2017-Aug-18 10:53N 41°27' E 029°12'0 1.0
2017-Aug-18 10:29N 41°27' E 029°11'0 0.9
2017-Aug-18 10:00N 41°27' E 029°11'0 0.9
2017-Aug-18 09:30N 41°28' E 029°11'0 0.9
2017-Aug-18 09:00N 41°28' E 029°10'0 0.9
2017-Aug-18 08:30N 41°29' E 029°10'0 0.9
2017-Aug-18 08:00N 41°29' E 029°10'3 1.0
2017-Aug-18 04:57N 41°31' E 029°08'1 1.0
2017-Aug-18 04:26N 41°32' E 029°07'1 1.0
2017-Aug-18 03:48N 41°32' E 029°07'0 1.0
2017-Aug-18 03:30N 41°33' E 029°06'0 1.0
2017-Aug-18 03:00N 41°33' E 029°06'0 1.0
2017-Aug-18 02:30N 41°33' E 029°06'2 1.0
2017-Aug-18 00:16N 41°35' E 029°04'0 1.1
2017-Aug-17 23:57N 41°35' E 029°03'0 0.6
2017-Aug-17 23:29N 41°36' E 029°03'1 2.0
2017-Aug-17 22:59N 41°36' E 029°05'511.3
2017-Aug-17 22:30N 41°37' E 029°11'714.1
2017-Aug-17 22:00N 41°43' E 029°17'815.7
2017-Aug-17 21:30N 41°50' E 029°20'815.8
2017-Aug-17 21:00N 41°58' E 029°23'815.7
2017-Aug-17 20:30N 42°05' E 029°26'1215.6
2017-Aug-17 19:45N 42°16' E 029°32'415.5
2017-Aug-17 19:30N 42°20' E 029°34'815.3
2017-Aug-17 19:00N 42°27' E 029°38'815.3
2017-Aug-17 18:30N 42°34' E 029°43'815.2
2017-Aug-17 18:01N 42°41' E 029°47'815.2
2017-Aug-17 17:30N 42°48' E 029°51'815.2
2017-Aug-17 17:01N 42°55' E 029°55'815.3
2017-Aug-17 16:30N 43°02' E 029°59'815.3
2017-Aug-17 16:00N 43°09' E 030°02'815.4
2017-Aug-17 15:30N 43°16' E 030°06'815.3
2017-Aug-17 15:00N 43°23' E 030°10'815.3
2017-Aug-17 14:30N 43°31' E 030°14'815.4
2017-Aug-17 14:00N 43°38' E 030°17'815.4
2017-Aug-17 13:30N 43°45' E 030°21'815.3
2017-Aug-17 13:00N 43°52' E 030°25'815.1
2017-Aug-17 12:30N 43°59' E 030°29'715.0
2017-Aug-17 12:01N 44°06' E 030°32'814.8
2017-Aug-17 11:30N 44°13' E 030°36'714.8
2017-Aug-17 11:00N 44°20' E 030°39'714.7
2017-Aug-17 10:31N 44°27' E 030°43'714.6
2017-Aug-17 10:00N 44°34' E 030°47'714.6
2017-Aug-17 09:31N 44°41' E 030°50'714.7
2017-Aug-17 09:00N 44°48' E 030°53'914.8
2017-Aug-17 08:24N 44°56' E 030°57'614.9
2017-Aug-17 08:00N 45°02' E 030°59'715.0
2017-Aug-17 07:30N 45°09' E 031°01'814.7
2017-Aug-17 06:59N 45°17' E 031°04'714.6
2017-Aug-17 06:30N 45°24' E 031°05'714.8
2017-Aug-17 06:00N 45°31' E 031°05'714.8
2017-Aug-17 05:30N 45°38' E 031°05'714.9
2017-Aug-17 05:00N 45°46' E 031°05'714.7
2017-Aug-17 04:31N 45°53' E 031°05'714.8
2017-Aug-17 04:00N 46°01' E 031°05'714.1
2017-Aug-17 03:30N 46°08' E 031°04'714.4
2017-Aug-17 03:00N 46°13' E 030°57'612.7
2017-Aug-17 02:31N 46°19' E 030°55'714.1
2017-Aug-17 02:00N 46°26' E 030°55'611.6
2017-Aug-17 01:30N 46°32' E 030°56'4 7.9
2017-Aug-17 01:00N 46°34' E 031°00'3 3.0
2017-Aug-17 00:06N 46°37' E 031°01'0 0.0
2017-Aug-16 23:58N 46°37' E 031°01'0 0.0
2017-Aug-16 23:28N 46°37' E 031°01'3 0.1
2017-Aug-15 14:00N 46°34' E 031°00'10 6.6
2017-Aug-15 12:29N 46°24' E 030°57'714.9
2017-Aug-15 12:00N 46°17' E 030°58'815.4
2017-Aug-15 11:30N 46°11' E 031°05'714.9
2017-Aug-15 11:00N 46°04' E 031°09'815.3
2017-Aug-15 10:30N 45°57' E 031°09'814.9
2017-Aug-15 10:00N 45°49' E 031°09'4414.8
2017-Aug-15 07:03N 45°06' E 031°03'115.5
2017-Aug-15 06:58N 45°04' E 031°02'915.5
2017-Aug-15 06:23N 44°56' E 030°58'  

Dump ship's entire track history